createdAt,value
2019-05-14T00:02:42.480Z,99.90
2019-05-14T00:07:38.130Z,99.90
2019-05-14T00:12:33.661Z,99.90
2019-05-14T00:17:29.188Z,99.90
2019-05-14T00:22:24.736Z,99.90
2019-05-14T00:27:21.836Z,99.90
2019-05-14T00:32:17.650Z,99.90
2019-05-14T00:37:13.248Z,99.90
2019-05-14T00:42:08.814Z,99.90
2019-05-14T00:47:04.341Z,99.90
2019-05-14T00:52:02.047Z,99.90
2019-05-14T00:56:57.069Z,99.90
2019-05-14T01:01:52.717Z,99.90
2019-05-14T01:06:48.269Z,81.10
2019-05-14T01:11:43.837Z,79.50
2019-05-14T01:16:42.254Z,82.20
2019-05-14T01:21:38.037Z,76.10
2019-05-14T01:26:33.548Z,84.60
2019-05-14T01:31:31.306Z,88.50
2019-05-14T01:36:26.221Z,83.90
2019-05-14T01:41:22.438Z,86.60
2019-05-14T01:46:18.197Z,90.20
2019-05-14T01:51:14.385Z,92.40
2019-05-14T01:56:11.830Z,94.50
2019-05-14T02:01:07.121Z,96.40
2019-05-14T02:06:02.766Z,97.00
2019-05-14T02:10:58.468Z,97.90
2019-05-14T02:15:54.014Z,98.20
2019-05-14T02:20:51.844Z,98.90
2019-05-14T02:25:47.833Z,99.80
2019-05-14T02:30:51.954Z,99.60
2019-05-14T02:35:40.675Z,99.30
2019-05-14T02:40:36.207Z,90.50
2019-05-14T02:45:32.078Z,83.00
2019-05-14T02:50:29.495Z,83.60
2019-05-14T02:55:26.128Z,87.80
2019-05-14T03:00:21.764Z,89.40
2019-05-14T03:05:19.182Z,87.10
2019-05-14T03:10:15.308Z,88.40
2019-05-14T03:15:11.172Z,71.80
2019-05-14T03:20:09.119Z,81.00
2019-05-14T03:25:06.135Z,81.30
2019-05-14T03:30:01.685Z,91.20
2019-05-14T03:35:03.719Z,92.50
2019-05-14T03:39:55.522Z,95.40
2019-05-14T03:44:51.213Z,93.40
2019-05-14T03:49:49.547Z,90.90
2019-05-14T03:54:44.042Z,92.00
2019-05-14T03:59:40.622Z,93.00
2019-05-14T04:04:39.369Z,85.50
2019-05-14T04:09:34.588Z,78.20
2019-05-14T04:14:31.949Z,68.50
2019-05-14T04:19:29.957Z,67.60
2019-05-14T04:24:30.433Z,60.10
2019-05-14T04:29:30.583Z,61.60
2019-05-14T04:34:25.327Z,61.00
2019-05-14T04:39:20.992Z,60.10
2019-05-14T04:44:19.191Z,56.50
2019-05-14T04:49:13.903Z,56.10
2019-05-14T04:54:09.821Z,53.20
2019-05-14T04:59:05.476Z,53.80
2019-05-14T05:04:01.169Z,53.40
2019-05-14T05:08:59.717Z,53.80
2019-05-14T05:13:54.018Z,54.70
2019-05-14T05:18:49.642Z,52.80
2019-05-14T05:23:45.265Z,51.70
2019-05-14T05:28:40.862Z,53.20
2019-05-14T05:38:51.371Z,54.00
2019-05-14T05:43:48.394Z,56.20
2019-05-14T05:48:44.246Z,54.10
2019-05-14T05:53:40.077Z,53.10
2019-05-14T05:58:35.822Z,53.10
2019-05-14T06:03:31.578Z,51.00
2019-05-14T06:08:28.170Z,49.50
2019-05-14T06:13:23.970Z,50.10
2019-05-14T06:18:22.180Z,49.50
2019-05-14T06:23:18.912Z,48.60
2019-05-14T06:28:15.123Z,49.70
2019-05-14T06:33:10.842Z,49.10
2019-05-14T06:38:08.754Z,49.00
2019-05-14T06:43:04.182Z,48.10
2019-05-14T06:48:00.151Z,47.50
2019-05-14T06:52:58.015Z,46.50
2019-05-14T06:57:53.085Z,44.50
2019-05-14T07:02:49.270Z,45.90
2019-05-14T07:07:45.022Z,46.90
2019-05-14T07:12:40.621Z,45.30
2019-05-14T07:17:38.393Z,44.60
2019-05-14T07:22:34.249Z,47.70
2019-05-14T07:27:29.975Z,48.10
2019-05-14T07:32:28.516Z,49.50
2019-05-14T07:37:22.805Z,48.80
2019-05-14T07:42:18.591Z,48.10
2019-05-14T07:47:14.225Z,49.60
2019-05-14T07:52:09.787Z,51.40
2019-05-14T07:57:05.493Z,49.40
2019-05-14T08:02:01.146Z,50.10
2019-05-14T08:07:03.217Z,50.40
2019-05-14T08:11:58.938Z,51.00
2019-05-14T08:16:54.564Z,51.00
2019-05-14T08:21:50.158Z,50.10
2019-05-14T08:26:45.821Z,50.10
2019-05-14T08:31:41.548Z,50.00
2019-05-14T08:36:37.957Z,49.70
2019-05-14T08:41:33.718Z,49.60
2019-05-14T08:46:29.401Z,48.70
2019-05-14T08:51:25.026Z,48.30
2019-05-14T08:56:20.634Z,47.90
2019-05-14T09:01:19.185Z,47.40
2019-05-14T09:06:13.449Z,47.70
2019-05-14T09:11:10.006Z,46.50
2019-05-14T09:16:05.797Z,47.60
2019-05-14T09:21:01.417Z,46.60
2019-05-14T09:25:55.270Z,45.80
2019-05-14T09:30:50.944Z,44.00
2019-05-14T09:35:49.065Z,43.40
2019-05-14T09:40:43.811Z,40.80
2019-05-14T09:45:39.909Z,39.30
2019-05-14T09:50:35.538Z,40.70
2019-05-14T09:55:31.160Z,39.00
2019-05-14T10:00:27.176Z,41.00
2019-05-14T10:05:25.821Z,38.90
2019-05-14T10:10:21.456Z,35.60
2019-05-14T10:15:17.225Z,35.40
2019-05-14T10:20:13.089Z,36.50
2019-05-14T10:25:10.405Z,35.00
2019-05-14T10:30:09.921Z,36.20
2019-05-14T10:35:04.825Z,35.70
2019-05-14T10:40:01.533Z,38.10
2019-05-14T10:44:58.669Z,39.80
2019-05-14T10:49:54.608Z,40.60
2019-05-14T10:54:55.699Z,41.00
2019-05-14T10:59:47.659Z,37.80
2019-05-14T11:04:43.324Z,38.00
2019-05-14T11:09:38.921Z,37.80
2019-05-14T11:14:34.632Z,38.40
2019-05-14T11:19:30.395Z,38.80
2019-05-14T11:24:26.221Z,40.70
2019-05-14T11:29:21.892Z,43.30
2019-05-14T11:34:19.283Z,45.10
2019-05-14T11:39:14.693Z,45.00
2019-05-14T11:44:10.238Z,47.20
2019-05-14T11:49:08.675Z,48.20
2019-05-14T11:54:02.998Z,48.70
2019-05-14T11:58:59.064Z,48.60
2019-05-14T12:03:54.796Z,55.60
2019-05-14T12:08:50.370Z,61.40
2019-05-14T12:13:48.480Z,62.90
2019-05-14T12:18:43.298Z,61.60
2019-05-14T12:23:39.501Z,61.30
2019-05-14T12:28:35.091Z,60.80
2019-05-14T12:33:32.023Z,59.10
2019-05-14T12:38:29.690Z,56.80
2019-05-14T12:43:25.056Z,55.60
2019-05-14T12:48:20.711Z,55.30
2019-05-14T12:53:19.668Z,54.90
2019-05-14T12:58:13.750Z,49.50
2019-05-14T13:03:10.249Z,48.80
2019-05-14T13:08:05.924Z,48.80
2019-05-14T13:13:08.229Z,46.50
2019-05-14T13:18:08.737Z,46.00
2019-05-14T13:23:04.465Z,47.20
2019-05-14T13:28:00.056Z,46.10
2019-05-14T13:32:55.723Z,46.10
2019-05-14T13:37:51.386Z,46.90
2019-05-14T13:42:49.195Z,47.20
2019-05-14T13:47:44.338Z,49.40
2019-05-14T13:52:58.236Z,50.40
2019-05-14T13:57:39.835Z,49.60
2019-05-14T14:02:34.538Z,51.30
2019-05-14T14:07:30.213Z,52.00
2019-05-14T14:12:31.944Z,50.30
2019-05-14T14:17:23.236Z,50.90
2019-05-14T14:22:19.663Z,50.70
2019-05-14T14:27:16.983Z,51.90
2019-05-14T14:32:12.862Z,50.40
2019-05-14T14:37:08.972Z,50.10
2019-05-14T14:42:04.774Z,50.10
2019-05-14T14:47:04.464Z,49.30
2019-05-14T14:52:00.659Z,48.10
2019-05-14T14:56:56.406Z,47.70
2019-05-14T15:01:52.098Z,48.40
2019-05-14T15:06:50.881Z,48.00
2019-05-14T15:11:45.062Z,48.40
2019-05-14T15:16:40.845Z,48.20
2019-05-14T15:21:36.983Z,49.40
2019-05-14T15:26:32.670Z,49.50
2019-05-14T15:31:29.225Z,48.80
2019-05-14T15:36:26.151Z,48.90
2019-05-14T15:41:21.756Z,48.60
2019-05-14T15:46:18.456Z,48.40
2019-05-14T15:51:19.205Z,48.50
2019-05-14T15:56:13.975Z,48.60
2019-05-14T16:01:10.427Z,47.70
2019-05-14T16:06:08.965Z,46.60
2019-05-14T16:11:05.669Z,47.10
2019-05-14T16:16:01.751Z,49.00
2019-05-14T16:20:59.279Z,47.40
2019-05-14T16:25:55.250Z,49.90
2019-05-14T16:30:50.908Z,49.00
2019-05-14T16:35:48.550Z,48.60
2019-05-14T16:40:45.081Z,49.20
2019-05-14T16:45:40.774Z,49.60
2019-05-14T16:50:36.370Z,50.40
2019-05-14T16:55:32.029Z,51.50
2019-05-14T17:00:29.427Z,51.40
2019-05-14T17:05:24.878Z,51.30
2019-05-14T17:10:20.702Z,50.90
2019-05-14T17:15:18.130Z,51.10
2019-05-14T17:20:14.160Z,51.40
2019-05-14T17:25:10.538Z,52.00
2019-05-14T17:30:08.845Z,51.80
2019-05-14T17:35:11.161Z,51.20
2019-05-14T17:40:09.554Z,50.90
2019-05-14T17:45:08.199Z,50.80
2019-05-14T17:50:05.697Z,50.60
2019-05-14T17:55:02.478Z,51.20
2019-05-14T17:59:58.441Z,52.10
2019-05-14T18:04:56.367Z,52.10
2019-05-14T18:09:51.458Z,52.10
2019-05-14T18:14:48.097Z,52.70
2019-05-14T18:19:44.055Z,52.20
2019-05-14T18:24:40.521Z,53.00
2019-05-14T18:29:38.989Z,53.60
2019-05-14T18:34:36.148Z,53.40
2019-05-14T18:39:39.255Z,54.10
2019-05-14T18:44:34.729Z,54.20
2019-05-14T18:49:30.461Z,54.90
2019-05-14T18:54:26.208Z,55.40
2019-05-14T18:59:23.119Z,56.20
2019-05-14T19:04:18.818Z,56.60
2019-05-14T19:09:15.173Z,57.60
2019-05-14T19:14:13.101Z,58.40
2019-05-14T19:19:08.955Z,59.10
2019-05-14T19:24:08.943Z,59.70
2019-05-14T19:29:04.966Z,63.10
2019-05-14T19:34:04.047Z,65.10
2019-05-14T19:39:00.838Z,65.50
2019-05-14T19:44:01.387Z,66.90
2019-05-14T19:48:59.080Z,67.20
2019-05-14T19:53:54.840Z,67.80
2019-05-14T19:58:51.706Z,68.10
2019-05-14T20:03:47.337Z,70.20
2019-05-14T20:08:43.037Z,71.40
2019-05-14T20:13:39.334Z,73.40
2019-05-14T20:18:38.041Z,74.10
2019-05-14T20:23:32.921Z,74.30
2019-05-14T20:28:28.722Z,75.20
2019-05-14T20:33:24.473Z,75.90
2019-05-14T20:38:20.126Z,77.00
2019-05-14T20:43:18.263Z,77.90
2019-05-14T20:48:13.181Z,78.10
2019-05-14T20:53:08.884Z,79.40
2019-05-14T20:58:04.412Z,80.60
2019-05-14T21:03:00.355Z,82.30
2019-05-14T21:07:55.987Z,84.60
2019-05-14T21:12:51.593Z,85.90
2019-05-14T21:17:50.243Z,87.40
2019-05-14T21:22:44.337Z,88.70
2019-05-14T21:27:47.868Z,89.40
2019-05-14T21:32:42.049Z,90.30
2019-05-14T21:37:35.504Z,91.00
2019-05-14T21:42:31.373Z,90.70
2019-05-14T21:47:28.551Z,90.70
2019-05-14T21:52:24.228Z,90.80
2019-05-14T21:57:19.809Z,91.00
2019-05-14T22:02:24.368Z,91.10
2019-05-14T22:07:13.452Z,91.50
2019-05-14T22:12:10.080Z,89.00
2019-05-14T22:17:09.451Z,86.60
2019-05-14T22:22:05.089Z,88.00
2019-05-14T22:27:00.712Z,89.60
2019-05-14T22:31:58.582Z,88.90
2019-05-14T22:36:53.621Z,89.10
2019-05-14T22:41:49.276Z,89.60
2019-05-14T22:46:44.936Z,90.00
2019-05-14T22:51:40.547Z,89.60
2019-05-14T22:56:38.728Z,88.70
2019-05-14T23:01:33.337Z,89.90
2019-05-14T23:06:32.547Z,90.80
2019-05-14T23:11:28.901Z,91.20
2019-05-14T23:16:34.411Z,91.70
2019-05-14T23:21:21.766Z,92.00
2019-05-14T23:26:19.225Z,92.70
2019-05-14T23:31:14.619Z,94.20
2019-05-14T23:36:10.348Z,94.00
2019-05-14T23:41:08.454Z,94.10
2019-05-14T23:46:03.074Z,94.50
2019-05-14T23:50:58.618Z,94.90
2019-05-14T23:55:54.174Z,95.60
